sensor_id;sensor_type;location;lat;lon;timestamp;P1;durP1;ratioP1;P2;durP2;ratioP2
64252;SDS011;50592;52.958;-7.470;2022-07-30T00:00:44;1.77;;;0.55;;
64252;SDS011;50592;52.958;-7.470;2022-07-30T00:03:10;1.42;;;0.50;;
64252;SDS011;50592;52.958;-7.470;2022-07-30T00:05:36;1.20;;;0.40;;
64252;SDS011;50592;52.958;-7.470;2022-07-30T00:08:01;1.27;;;0.38;;
64252;SDS011;50592;52.958;-7.470;2022-07-30T00:10:28;1.00;;;0.47;;
64252;SDS011;50592;52.958;-7.470;2022-07-30T00:12:54;2.53;;;0.47;;
64252;SDS011;50592;52.958;-7.470;2022-07-30T00:15:20;0.28;;;0.20;;
64252;SDS011;50592;52.958;-7.470;2022-07-30T00:17:45;2.08;;;0.60;;
64252;SDS011;50592;52.958;-7.470;2022-07-30T00:20:11;0.70;;;0.40;;
64252;SDS011;50592;52.958;-7.470;2022-07-30T00:22:37;0.30;;;0.30;;
64252;SDS011;50592;52.958;-7.470;2022-07-30T00:25:03;1.10;;;0.50;;
64252;SDS011;50592;52.958;-7.470;2022-07-30T00:27:30;0.88;;;0.30;;
64252;SDS011;50592;52.958;-7.470;2022-07-30T00:29:59;1.85;;;0.45;;
64252;SDS011;50592;52.958;-7.470;2022-07-30T00:32:25;0.40;;;0.40;;
64252;SDS011;50592;52.958;-7.470;2022-07-30T00:34:51;1.25;;;0.32;;
64252;SDS011;50592;52.958;-7.470;2022-07-30T00:37:17;0.82;;;0.20;;
64252;SDS011;50592;52.958;-7.470;2022-07-30T00:39:43;2.10;;;0.52;;
64252;SDS011;50592;52.958;-7.470;2022-07-30T00:42:09;1.98;;;0.28;;
64252;SDS011;50592;52.958;-7.470;2022-07-30T00:44:34;0.75;;;0.40;;
64252;SDS011;50592;52.958;-7.470;2022-07-30T00:47:00;1.33;;;0.35;;
64252;SDS011;50592;52.958;-7.470;2022-07-30T00:49:26;0.70;;;0.20;;
64252;SDS011;50592;52.958;-7.470;2022-07-30T00:51:52;2.30;;;0.40;;
64252;SDS011;50592;52.958;-7.470;2022-07-30T00:54:18;0.70;;;0.43;;
64252;SDS011;50592;52.958;-7.470;2022-07-30T00:56:45;1.33;;;0.35;;
64252;SDS011;50592;52.958;-7.470;2022-07-30T00:59:12;1.27;;;0.40;;
64252;SDS011;50592;52.958;-7.470;2022-07-30T01:01:38;2.03;;;0.28;;
64252;SDS011;50592;52.958;-7.470;2022-07-30T01:04:04;0.60;;;0.30;;
64252;SDS011;50592;52.958;-7.470;2022-07-30T01:06:36;0.80;;;0.32;;
64252;SDS011;50592;52.958;-7.470;2022-07-30T01:09:04;0.70;;;0.20;;
64252;SDS011;50592;52.958;-7.470;2022-07-30T01:11:35;0.35;;;0.20;;
64252;SDS011;50592;52.958;-7.470;2022-07-30T01:14:04;0.70;;;0.30;;
64252;SDS011;50592;52.958;-7.470;2022-07-30T01:16:31;1.08;;;0.30;;
64252;SDS011;50592;52.958;-7.470;2022-07-30T01:18:58;9.48;;;0.50;;
64252;SDS011;50592;52.958;-7.470;2022-07-30T01:21:45;0.73;;;0.30;;
64252;SDS011;50592;52.958;-7.470;2022-07-30T01:24:29;0.77;;;0.28;;
64252;SDS011;50592;52.958;-7.470;2022-07-30T01:27:01;0.50;;;0.20;;
64252;SDS011;50592;52.958;-7.470;2022-07-30T01:29:28;0.50;;;0.20;;
64252;SDS011;50592;52.958;-7.470;2022-07-30T01:31:57;0.32;;;0.20;;
64252;SDS011;50592;52.958;-7.470;2022-07-30T01:34:29;1.83;;;0.30;;
64252;SDS011;50592;52.958;-7.470;2022-07-30T01:36:58;0.30;;;0.20;;
64252;SDS011;50592;52.958;-7.470;2022-07-30T01:39:26;0.30;;;0.30;;
64252;SDS011;50592;52.958;-7.470;2022-07-30T01:41:54;0.20;;;0.20;;
64252;SDS011;50592;52.958;-7.470;2022-07-30T01:44:22;0.63;;;0.40;;
64252;SDS011;50592;52.958;-7.470;2022-07-30T01:46:51;1.58;;;0.60;;
64252;SDS011;50592;52.958;-7.470;2022-07-30T01:49:18;2.28;;;0.52;;
64252;SDS011;50592;52.958;-7.470;2022-07-30T01:51:47;0.60;;;0.60;;
64252;SDS011;50592;52.958;-7.470;2022-07-30T01:54:13;1.17;;;0.80;;
64252;SDS011;50592;52.958;-7.470;2022-07-30T01:56:44;1.38;;;1.02;;
64252;SDS011;50592;52.958;-7.470;2022-07-30T01:59:13;1.00;;;1.00;;
64252;SDS011;50592;52.958;-7.470;2022-07-30T02:01:45;1.02;;;0.98;;
64252;SDS011;50592;52.958;-7.470;2022-07-30T02:04:12;1.73;;;1.15;;
64252;SDS011;50592;52.958;-7.470;2022-07-30T02:06:38;1.50;;;1.10;;
64252;SDS011;50592;52.958;-7.470;2022-07-30T02:09:14;2.88;;;1.20;;
64252;SDS011;50592;52.958;-7.470;2022-07-30T02:11:47;1.58;;;1.23;;
64252;SDS011;50592;52.958;-7.470;2022-07-30T02:14:38;4.40;;;1.42;;
64252;SDS011;50592;52.958;-7.470;2022-07-30T02:17:09;2.95;;;1.50;;
64252;SDS011;50592;52.958;-7.470;2022-07-30T02:19:41;1.75;;;1.20;;
64252;SDS011;50592;52.958;-7.470;2022-07-30T02:22:12;3.50;;;1.48;;
64252;SDS011;50592;52.958;-7.470;2022-07-30T02:24:41;1.83;;;1.58;;
64252;SDS011;50592;52.958;-7.470;2022-07-30T02:27:11;1.85;;;1.23;;
64252;SDS011;50592;52.958;-7.470;2022-07-30T02:29:44;3.20;;;1.30;;
64252;SDS011;50592;52.958;-7.470;2022-07-30T02:32:13;2.65;;;1.40;;
64252;SDS011;50592;52.958;-7.470;2022-07-30T02:34:43;1.40;;;1.15;;
64252;SDS011;50592;52.958;-7.470;2022-07-30T02:37:13;1.45;;;1.20;;
64252;SDS011;50592;52.958;-7.470;2022-07-30T02:39:40;6.35;;;1.20;;
64252;SDS011;50592;52.958;-7.470;2022-07-30T02:42:08;1.42;;;1.33;;
64252;SDS011;50592;52.958;-7.470;2022-07-30T02:44:38;1.40;;;1.30;;
64252;SDS011;50592;52.958;-7.470;2022-07-30T02:47:08;3.60;;;1.65;;
64252;SDS011;50592;52.958;-7.470;2022-07-30T02:49:38;2.05;;;1.83;;
64252;SDS011;50592;52.958;-7.470;2022-07-30T02:52:06;4.18;;;1.85;;
64252;SDS011;50592;52.958;-7.470;2022-07-30T02:54:36;1.80;;;1.70;;
64252;SDS011;50592;52.958;-7.470;2022-07-30T02:57:06;2.67;;;2.47;;
64252;SDS011;50592;52.958;-7.470;2022-07-30T02:59:34;7.60;;;2.30;;
64252;SDS011;50592;52.958;-7.470;2022-07-30T03:02:02;2.55;;;2.30;;
64252;SDS011;50592;52.958;-7.470;2022-07-30T03:04:31;2.50;;;2.30;;
64252;SDS011;50592;52.958;-7.470;2022-07-30T03:06:58;4.88;;;2.17;;
64252;SDS011;50592;52.958;-7.470;2022-07-30T03:09:25;2.17;;;1.92;;
64252;SDS011;50592;52.958;-7.470;2022-07-30T03:11:52;2.53;;;2.33;;
64252;SDS011;50592;52.958;-7.470;2022-07-30T03:14:20;3.47;;;2.25;;
64252;SDS011;50592;52.958;-7.470;2022-07-30T03:16:47;2.65;;;2.42;;
64252;SDS011;50592;52.958;-7.470;2022-07-30T03:19:21;2.60;;;2.40;;
64252;SDS011;50592;52.958;-7.470;2022-07-30T03:21:48;3.60;;;2.53;;
64252;SDS011;50592;52.958;-7.470;2022-07-30T03:24:19;4.28;;;2.45;;
64252;SDS011;50592;52.958;-7.470;2022-07-30T03:26:49;6.07;;;3.00;;
64252;SDS011;50592;52.958;-7.470;2022-07-30T03:29:17;2.75;;;2.55;;
64252;SDS011;50592;52.958;-7.470;2022-07-30T03:31:44;2.95;;;2.63;;
64252;SDS011;50592;52.958;-7.470;2022-07-30T03:34:11;4.53;;;3.03;;
64252;SDS011;50592;52.958;-7.470;2022-07-30T03:36:37;3.63;;;2.72;;
64252;SDS011;50592;52.958;-7.470;2022-07-30T03:39:04;7.70;;;2.38;;
64252;SDS011;50592;52.958;-7.470;2022-07-30T03:41:32;4.30;;;2.40;;
64252;SDS011;50592;52.958;-7.470;2022-07-30T03:44:00;2.58;;;2.20;;
64252;SDS011;50592;52.958;-7.470;2022-07-30T03:46:26;5.72;;;2.20;;
64252;SDS011;50592;52.958;-7.470;2022-07-30T03:48:53;4.10;;;2.13;;
64252;SDS011;50592;52.958;-7.470;2022-07-30T03:51:21;4.05;;;2.60;;
64252;SDS011;50592;52.958;-7.470;2022-07-30T03:53:47;2.85;;;1.92;;
64252;SDS011;50592;52.958;-7.470;2022-07-30T03:56:33;2.65;;;2.13;;
64252;SDS011;50592;52.958;-7.470;2022-07-30T03:59:09;4.38;;;2.08;;
64252;SDS011;50592;52.958;-7.470;2022-07-30T04:01:38;3.22;;;1.55;;
64252;SDS011;50592;52.958;-7.470;2022-07-30T04:04:10;4.18;;;1.98;;
64252;SDS011;50592;52.958;-7.470;2022-07-30T04:06:38;3.97;;;2.03;;
64252;SDS011;50592;52.958;-7.470;2022-07-30T04:09:05;5.50;;;1.90;;
64252;SDS011;50592;52.958;-7.470;2022-07-30T04:11:32;2.08;;;1.83;;
64252;SDS011;50592;52.958;-7.470;2022-07-30T04:14:04;3.20;;;1.88;;
64252;SDS011;50592;52.958;-7.470;2022-07-30T04:16:53;4.53;;;1.30;;
64252;SDS011;50592;52.958;-7.470;2022-07-30T04:19:35;3.95;;;1.83;;
64252;SDS011;50592;52.958;-7.470;2022-07-30T04:22:04;2.17;;;1.50;;
64252;SDS011;50592;52.958;-7.470;2022-07-30T04:24:34;4.05;;;1.40;;
64252;SDS011;50592;52.958;-7.470;2022-07-30T04:27:03;2.13;;;1.50;;
64252;SDS011;50592;52.958;-7.470;2022-07-30T04:29:30;1.75;;;1.02;;
64252;SDS011;50592;52.958;-7.470;2022-07-30T04:31:56;2.55;;;1.48;;
64252;SDS011;50592;52.958;-7.470;2022-07-30T04:34:47;3.33;;;1.90;;
64252;SDS011;50592;52.958;-7.470;2022-07-30T04:37:34;1.92;;;1.10;;
64252;SDS011;50592;52.958;-7.470;2022-07-30T04:40:00;2.28;;;1.10;;
64252;SDS011;50592;52.958;-7.470;2022-07-30T04:42:27;2.40;;;1.30;;
64252;SDS011;50592;52.958;-7.470;2022-07-30T04:45:04;2.30;;;1.30;;
64252;SDS011;50592;52.958;-7.470;2022-07-30T04:47:50;4.00;;;1.77;;
64252;SDS011;50592;52.958;-7.470;2022-07-30T04:53:07;1.95;;;1.27;;
64252;SDS011;50592;52.958;-7.470;2022-07-30T04:55:40;2.17;;;1.35;;
64252;SDS011;50592;52.958;-7.470;2022-07-30T04:58:08;1.35;;;1.00;;
64252;SDS011;50592;52.958;-7.470;2022-07-30T05:00:37;2.40;;;1.30;;
64252;SDS011;50592;52.958;-7.470;2022-07-30T05:03:05;3.65;;;1.23;;
64252;SDS011;50592;52.958;-7.470;2022-07-30T05:05:34;2.65;;;1.38;;
64252;SDS011;50592;52.958;-7.470;2022-07-30T05:08:01;6.05;;;1.20;;
64252;SDS011;50592;52.958;-7.470;2022-07-30T05:10:29;5.78;;;1.55;;
64252;SDS011;50592;52.958;-7.470;2022-07-30T05:12:56;1.23;;;1.13;;
64252;SDS011;50592;52.958;-7.470;2022-07-30T05:15:22;2.42;;;1.70;;
64252;SDS011;50592;52.958;-7.470;2022-07-30T05:17:48;3.25;;;1.45;;
64252;SDS011;50592;52.958;-7.470;2022-07-30T05:20:15;3.65;;;1.73;;
64252;SDS011;50592;52.958;-7.470;2022-07-30T05:23:03;3.45;;;1.63;;
64252;SDS011;50592;52.958;-7.470;2022-07-30T05:25:30;2.90;;;1.67;;
64252;SDS011;50592;52.958;-7.470;2022-07-30T05:28:07;3.53;;;1.48;;
64252;SDS011;50592;52.958;-7.470;2022-07-30T05:30:35;2.50;;;1.60;;
64252;SDS011;50592;52.958;-7.470;2022-07-30T05:33:02;2.00;;;1.80;;
64252;SDS011;50592;52.958;-7.470;2022-07-30T05:35:28;6.75;;;2.45;;
64252;SDS011;50592;52.958;-7.470;2022-07-30T05:37:54;3.10;;;1.60;;
64252;SDS011;50592;52.958;-7.470;2022-07-30T05:40:20;6.30;;;1.83;;
64252;SDS011;50592;52.958;-7.470;2022-07-30T05:43:05;5.25;;;1.63;;
64252;SDS011;50592;52.958;-7.470;2022-07-30T05:45:31;3.55;;;1.55;;
64252;SDS011;50592;52.958;-7.470;2022-07-30T05:47:57;1.60;;;1.20;;
64252;SDS011;50592;52.958;-7.470;2022-07-30T05:50:23;2.28;;;1.60;;
64252;SDS011;50592;52.958;-7.470;2022-07-30T05:52:49;2.53;;;1.33;;
64252;SDS011;50592;52.958;-7.470;2022-07-30T05:55:33;2.80;;;1.75;;
64252;SDS011;50592;52.958;-7.470;2022-07-30T05:58:28;1.95;;;1.30;;
64252;SDS011;50592;52.958;-7.470;2022-07-30T06:00:54;3.47;;;1.73;;
64252;SDS011;50592;52.958;-7.470;2022-07-30T06:03:21;3.42;;;1.70;;
64252;SDS011;50592;52.958;-7.470;2022-07-30T06:06:24;6.75;;;1.83;;
64252;SDS011;50592;52.958;-7.470;2022-07-30T06:08:50;2.50;;;1.48;;
64252;SDS011;50592;52.958;-7.470;2022-07-30T06:11:16;3.72;;;1.70;;
64252;SDS011;50592;52.958;-7.470;2022-07-30T06:13:42;5.72;;;1.60;;
64252;SDS011;50592;52.958;-7.470;2022-07-30T06:16:08;2.22;;;1.58;;
64252;SDS011;50592;52.958;-7.470;2022-07-30T06:18:34;4.63;;;2.53;;
64252;SDS011;50592;52.958;-7.470;2022-07-30T06:21:02;4.00;;;1.60;;
64252;SDS011;50592;52.958;-7.470;2022-07-30T06:24:00;2.95;;;1.80;;
64252;SDS011;50592;52.958;-7.470;2022-07-30T06:26:36;11.05;;;1.67;;
64252;SDS011;50592;52.958;-7.470;2022-07-30T06:29:04;3.72;;;1.77;;
64252;SDS011;50592;52.958;-7.470;2022-07-30T06:31:31;2.13;;;1.58;;
64252;SDS011;50592;52.958;-7.470;2022-07-30T06:33:57;1.60;;;1.35;;
64252;SDS011;50592;52.958;-7.470;2022-07-30T06:36:26;1.80;;;1.48;;
64252;SDS011;50592;52.958;-7.470;2022-07-30T06:38:58;2.85;;;1.48;;
64252;SDS011;50592;52.958;-7.470;2022-07-30T06:41:38;2.95;;;1.83;;
64252;SDS011;50592;52.958;-7.470;2022-07-30T06:44:04;2.33;;;1.63;;
64252;SDS011;50592;52.958;-7.470;2022-07-30T06:46:49;1.77;;;1.40;;
64252;SDS011;50592;52.958;-7.470;2022-07-30T06:49:18;3.90;;;1.50;;
64252;SDS011;50592;52.958;-7.470;2022-07-30T06:51:44;3.35;;;1.92;;
64252;SDS011;50592;52.958;-7.470;2022-07-30T06:54:10;4.47;;;2.05;;
64252;SDS011;50592;52.958;-7.470;2022-07-30T06:56:36;3.00;;;1.70;;
64252;SDS011;50592;52.958;-7.470;2022-07-30T06:59:04;3.05;;;1.50;;
64252;SDS011;50592;52.958;-7.470;2022-07-30T07:01:37;2.65;;;1.70;;
64252;SDS011;50592;52.958;-7.470;2022-07-30T07:04:03;3.28;;;1.90;;
64252;SDS011;50592;52.958;-7.470;2022-07-30T07:06:29;2.28;;;1.52;;
64252;SDS011;50592;52.958;-7.470;2022-07-30T07:08:55;2.33;;;1.50;;
64252;SDS011;50592;52.958;-7.470;2022-07-30T07:11:29;1.92;;;1.45;;
64252;SDS011;50592;52.958;-7.470;2022-07-30T07:13:56;3.15;;;1.63;;
64252;SDS011;50592;52.958;-7.470;2022-07-30T07:16:31;2.60;;;1.52;;
64252;SDS011;50592;52.958;-7.470;2022-07-30T07:18:59;1.55;;;1.40;;
64252;SDS011;50592;52.958;-7.470;2022-07-30T07:21:25;4.07;;;1.52;;
64252;SDS011;50592;52.958;-7.470;2022-07-30T07:23:53;3.15;;;1.63;;
64252;SDS011;50592;52.958;-7.470;2022-07-30T07:26:37;2.97;;;1.90;;
64252;SDS011;50592;52.958;-7.470;2022-07-30T07:29:03;1.80;;;1.38;;
64252;SDS011;50592;52.958;-7.470;2022-07-30T07:31:29;4.72;;;1.60;;
64252;SDS011;50592;52.958;-7.470;2022-07-30T07:33:55;2.22;;;1.45;;
64252;SDS011;50592;52.958;-7.470;2022-07-30T07:36:21;5.88;;;1.73;;
64252;SDS011;50592;52.958;-7.470;2022-07-30T07:38:47;3.08;;;1.90;;
64252;SDS011;50592;52.958;-7.470;2022-07-30T07:41:14;3.17;;;2.17;;
64252;SDS011;50592;52.958;-7.470;2022-07-30T07:43:40;2.47;;;1.65;;
64252;SDS011;50592;52.958;-7.470;2022-07-30T07:46:09;1.58;;;1.48;;
64252;SDS011;50592;52.958;-7.470;2022-07-30T07:48:36;2.33;;;1.80;;
64252;SDS011;50592;52.958;-7.470;2022-07-30T07:51:23;2.00;;;1.75;;
64252;SDS011;50592;52.958;-7.470;2022-07-30T07:53:49;3.17;;;1.70;;
64252;SDS011;50592;52.958;-7.470;2022-07-30T07:56:15;2.38;;;1.80;;
64252;SDS011;50592;52.958;-7.470;2022-07-30T07:58:41;4.38;;;2.20;;
64252;SDS011;50592;52.958;-7.470;2022-07-30T08:01:10;3.40;;;1.95;;
64252;SDS011;50592;52.958;-7.470;2022-07-30T08:04:04;6.05;;;2.10;;
64252;SDS011;50592;52.958;-7.470;2022-07-30T08:06:48;3.42;;;2.00;;
64252;SDS011;50592;52.958;-7.470;2022-07-30T08:09:33;3.92;;;2.10;;
64252;SDS011;50592;52.958;-7.470;2022-07-30T08:12:17;2.85;;;2.10;;
64252;SDS011;50592;52.958;-7.470;2022-07-30T08:15:01;3.72;;;2.30;;
64252;SDS011;50592;52.958;-7.470;2022-07-30T08:17:46;3.50;;;2.50;;
64252;SDS011;50592;52.958;-7.470;2022-07-30T08:20:18;4.40;;;2.58;;
64252;SDS011;50592;52.958;-7.470;2022-07-30T08:22:46;3.95;;;2.30;;
64252;SDS011;50592;52.958;-7.470;2022-07-30T08:25:13;4.72;;;2.67;;
64252;SDS011;50592;52.958;-7.470;2022-07-30T08:27:39;3.13;;;2.35;;
64252;SDS011;50592;52.958;-7.470;2022-07-30T08:30:06;4.65;;;2.80;;
64252;SDS011;50592;52.958;-7.470;2022-07-30T08:32:34;4.03;;;2.58;;
64252;SDS011;50592;52.958;-7.470;2022-07-30T08:35:03;4.25;;;2.85;;
64252;SDS011;50592;52.958;-7.470;2022-07-30T08:37:30;3.63;;;2.40;;
64252;SDS011;50592;52.958;-7.470;2022-07-30T08:39:56;2.85;;;2.30;;
64252;SDS011;50592;52.958;-7.470;2022-07-30T08:42:22;3.78;;;2.33;;
64252;SDS011;50592;52.958;-7.470;2022-07-30T08:44:48;5.90;;;2.47;;
64252;SDS011;50592;52.958;-7.470;2022-07-30T08:47:17;4.30;;;2.63;;
64252;SDS011;50592;52.958;-7.470;2022-07-30T08:50:04;4.90;;;2.90;;
64252;SDS011;50592;52.958;-7.470;2022-07-30T08:52:35;3.72;;;3.17;;
64252;SDS011;50592;52.958;-7.470;2022-07-30T08:55:04;4.35;;;2.85;;
64252;SDS011;50592;52.958;-7.470;2022-07-30T08:57:31;4.10;;;2.67;;
64252;SDS011;50592;52.958;-7.470;2022-07-30T09:00:00;8.82;;;2.92;;
64252;SDS011;50592;52.958;-7.470;2022-07-30T09:02:27;3.80;;;2.50;;
64252;SDS011;50592;52.958;-7.470;2022-07-30T09:05:02;4.85;;;2.35;;
64252;SDS011;50592;52.958;-7.470;2022-07-30T09:07:30;4.70;;;2.83;;
64252;SDS011;50592;52.958;-7.470;2022-07-30T09:09:58;4.72;;;2.50;;
64252;SDS011;50592;52.958;-7.470;2022-07-30T09:20:15;4.63;;;2.20;;
64252;SDS011;50592;52.958;-7.470;2022-07-30T09:22:43;6.18;;;2.33;;
64252;SDS011;50592;52.958;-7.470;2022-07-30T09:25:39;5.03;;;2.42;;
64252;SDS011;50592;52.958;-7.470;2022-07-30T09:28:26;5.15;;;2.70;;
64252;SDS011;50592;52.958;-7.470;2022-07-30T09:31:15;6.55;;;2.50;;
64252;SDS011;50592;52.958;-7.470;2022-07-30T09:34:02;3.38;;;2.22;;
64252;SDS011;50592;52.958;-7.470;2022-07-30T09:36:46;4.40;;;2.53;;
64252;SDS011;50592;52.958;-7.470;2022-07-30T09:39:30;3.83;;;2.08;;
64252;SDS011;50592;52.958;-7.470;2022-07-30T09:42:24;4.15;;;1.90;;
64252;SDS011;50592;52.958;-7.470;2022-07-30T09:45:07;3.47;;;2.60;;
64252;SDS011;50592;52.958;-7.470;2022-07-30T09:47:36;4.63;;;2.45;;
64252;SDS011;50592;52.958;-7.470;2022-07-30T09:50:10;2.22;;;2.03;;
64252;SDS011;50592;52.958;-7.470;2022-07-30T09:52:39;5.18;;;2.55;;
64252;SDS011;50592;52.958;-7.470;2022-07-30T09:55:06;3.58;;;2.10;;
64252;SDS011;50592;52.958;-7.470;2022-07-30T09:57:33;6.30;;;2.30;;
64252;SDS011;50592;52.958;-7.470;2022-07-30T10:00:18;3.17;;;2.33;;
64252;SDS011;50592;52.958;-7.470;2022-07-30T10:03:00;2.47;;;2.28;;
64252;SDS011;50592;52.958;-7.470;2022-07-30T10:05:58;3.42;;;2.78;;
64252;SDS011;50592;52.958;-7.470;2022-07-30T10:11:18;5.70;;;2.75;;
64252;SDS011;50592;52.958;-7.470;2022-07-30T10:13:55;2.95;;;2.72;;
64252;SDS011;50592;52.958;-7.470;2022-07-30T10:16:26;3.95;;;3.20;;
64252;SDS011;50592;52.958;-7.470;2022-07-30T10:18:54;5.00;;;2.58;;
64252;SDS011;50592;52.958;-7.470;2022-07-30T10:21:59;4.50;;;2.67;;
64252;SDS011;50592;52.958;-7.470;2022-07-30T10:24:44;3.53;;;2.40;;
64252;SDS011;50592;52.958;-7.470;2022-07-30T10:27:28;2.92;;;2.42;;
64252;SDS011;50592;52.958;-7.470;2022-07-30T10:30:07;2.95;;;2.13;;
64252;SDS011;50592;52.958;-7.470;2022-07-30T10:32:33;4.88;;;2.50;;
64252;SDS011;50592;52.958;-7.470;2022-07-30T10:35:01;3.17;;;2.47;;
64252;SDS011;50592;52.958;-7.470;2022-07-30T10:37:28;5.50;;;2.40;;
64252;SDS011;50592;52.958;-7.470;2022-07-30T10:40:03;3.78;;;2.58;;
64252;SDS011;50592;52.958;-7.470;2022-07-30T10:48:30;3.00;;;2.40;;
64252;SDS011;50592;52.958;-7.470;2022-07-30T10:50:57;3.92;;;2.38;;
64252;SDS011;50592;52.958;-7.470;2022-07-30T10:56:12;3.63;;;1.95;;
64252;SDS011;50592;52.958;-7.470;2022-07-30T11:06:46;2.00;;;1.90;;
64252;SDS011;50592;52.958;-7.470;2022-07-30T11:12:04;2.75;;;1.55;;
64252;SDS011;50592;52.958;-7.470;2022-07-30T11:17:12;1.73;;;1.63;;
64252;SDS011;50592;52.958;-7.470;2022-07-30T11:25:03;2.00;;;1.80;;
64252;SDS011;50592;52.958;-7.470;2022-07-30T11:32:42;1.50;;;1.30;;
64252;SDS011;50592;52.958;-7.470;2022-07-30T11:35:16;2.60;;;1.20;;
64252;SDS011;50592;52.958;-7.470;2022-07-30T11:40:32;2.05;;;1.00;;
64252;SDS011;50592;52.958;-7.470;2022-07-30T11:43:21;1.52;;;0.93;;
64252;SDS011;50592;52.958;-7.470;2022-07-30T11:48:39;5.25;;;1.08;;
64252;SDS011;50592;52.958;-7.470;2022-07-30T11:51:20;2.33;;;0.90;;
64252;SDS011;50592;52.958;-7.470;2022-07-30T11:54:03;1.25;;;0.88;;
64252;SDS011;50592;52.958;-7.470;2022-07-30T11:56:31;0.93;;;0.82;;
64252;SDS011;50592;52.958;-7.470;2022-07-30T11:59:04;0.73;;;0.73;;
64252;SDS011;50592;52.958;-7.470;2022-07-30T12:01:31;0.88;;;0.80;;
64252;SDS011;50592;52.958;-7.470;2022-07-30T12:04:02;1.13;;;0.70;;
64252;SDS011;50592;52.958;-7.470;2022-07-30T12:06:29;1.63;;;0.70;;
64252;SDS011;50592;52.958;-7.470;2022-07-30T12:08:56;1.25;;;0.88;;
64252;SDS011;50592;52.958;-7.470;2022-07-30T12:11:23;13.60;;;1.35;;
64252;SDS011;50592;52.958;-7.470;2022-07-30T12:13:57;2.78;;;0.75;;
64252;SDS011;50592;52.958;-7.470;2022-07-30T12:16:24;0.98;;;0.60;;
64252;SDS011;50592;52.958;-7.470;2022-07-30T12:18:51;1.80;;;0.43;;
64252;SDS011;50592;52.958;-7.470;2022-07-30T12:21:17;0.70;;;0.50;;
64252;SDS011;50592;52.958;-7.470;2022-07-30T12:23:58;2.08;;;0.60;;
64252;SDS011;50592;52.958;-7.470;2022-07-30T12:26:26;3.60;;;0.60;;
64252;SDS011;50592;52.958;-7.470;2022-07-30T12:28:57;0.93;;;0.60;;
64252;SDS011;50592;52.958;-7.470;2022-07-30T12:31:25;1.38;;;0.50;;
64252;SDS011;50592;52.958;-7.470;2022-07-30T12:33:51;0.50;;;0.50;;
64252;SDS011;50592;52.958;-7.470;2022-07-30T12:36:33;0.82;;;0.60;;
64252;SDS011;50592;52.958;-7.470;2022-07-30T12:39:00;1.13;;;0.52;;
64252;SDS011;50592;52.958;-7.470;2022-07-30T12:41:41;1.38;;;0.70;;
64252;SDS011;50592;52.958;-7.470;2022-07-30T12:47:03;1.27;;;0.60;;
64252;SDS011;50592;52.958;-7.470;2022-07-30T12:49:31;2.15;;;0.60;;
64252;SDS011;50592;52.958;-7.470;2022-07-30T12:52:00;0.85;;;0.60;;
64252;SDS011;50592;52.958;-7.470;2022-07-30T12:54:29;0.73;;;0.60;;
64252;SDS011;50592;52.958;-7.470;2022-07-30T12:56:58;0.85;;;0.40;;
64252;SDS011;50592;52.958;-7.470;2022-07-30T12:59:30;0.47;;;0.40;;
64252;SDS011;50592;52.958;-7.470;2022-07-30T13:01:58;0.52;;;0.50;;
64252;SDS011;50592;52.958;-7.470;2022-07-30T13:04:25;3.15;;;0.50;;
64252;SDS011;50592;52.958;-7.470;2022-07-30T13:07:07;1.20;;;0.55;;
64252;SDS011;50592;52.958;-7.470;2022-07-30T13:09:38;1.25;;;0.60;;
64252;SDS011;50592;52.958;-7.470;2022-07-30T13:12:05;1.92;;;0.60;;
64252;SDS011;50592;52.958;-7.470;2022-07-30T13:14:31;0.55;;;0.55;;
64252;SDS011;50592;52.958;-7.470;2022-07-30T13:16:58;6.72;;;0.82;;
64252;SDS011;50592;52.958;-7.470;2022-07-30T13:19:24;1.10;;;0.68;;
64252;SDS011;50592;52.958;-7.470;2022-07-30T13:21:53;0.50;;;0.50;;
64252;SDS011;50592;52.958;-7.470;2022-07-30T13:24:20;1.23;;;0.60;;
64252;SDS011;50592;52.958;-7.470;2022-07-30T13:26:47;0.50;;;0.43;;
64252;SDS011;50592;52.958;-7.470;2022-07-30T13:29:13;1.05;;;0.80;;
64252;SDS011;50592;52.958;-7.470;2022-07-30T13:31:41;0.90;;;0.60;;
64252;SDS011;50592;52.958;-7.470;2022-07-30T13:34:07;0.60;;;0.60;;
64252;SDS011;50592;52.958;-7.470;2022-07-30T13:36:34;2.70;;;0.77;;
64252;SDS011;50592;52.958;-7.470;2022-07-30T13:39:00;2.40;;;0.80;;
64252;SDS011;50592;52.958;-7.470;2022-07-30T13:41:27;1.20;;;0.70;;
64252;SDS011;50592;52.958;-7.470;2022-07-30T13:43:53;1.30;;;0.77;;
64252;SDS011;50592;52.958;-7.470;2022-07-30T13:46:19;0.98;;;0.88;;
64252;SDS011;50592;52.958;-7.470;2022-07-30T13:48:45;2.53;;;0.70;;
64252;SDS011;50592;52.958;-7.470;2022-07-30T13:51:11;2.25;;;0.55;;
64252;SDS011;50592;52.958;-7.470;2022-07-30T13:53:37;2.63;;;0.60;;
64252;SDS011;50592;52.958;-7.470;2022-07-30T13:56:03;0.80;;;0.80;;
64252;SDS011;50592;52.958;-7.470;2022-07-30T13:58:29;0.63;;;0.63;;
64252;SDS011;50592;52.958;-7.470;2022-07-30T14:00:56;0.82;;;0.70;;
64252;SDS011;50592;52.958;-7.470;2022-07-30T14:03:22;2.15;;;0.80;;
64252;SDS011;50592;52.958;-7.470;2022-07-30T14:05:47;2.70;;;0.60;;
64252;SDS011;50592;52.958;-7.470;2022-07-30T14:08:13;0.70;;;0.70;;
64252;SDS011;50592;52.958;-7.470;2022-07-30T14:10:39;1.42;;;0.80;;
64252;SDS011;50592;52.958;-7.470;2022-07-30T14:13:05;2.05;;;0.77;;
64252;SDS011;50592;52.958;-7.470;2022-07-30T14:15:32;1.67;;;0.57;;
64252;SDS011;50592;52.958;-7.470;2022-07-30T14:17:59;0.88;;;0.65;;
64252;SDS011;50592;52.958;-7.470;2022-07-30T14:20:25;0.93;;;0.70;;
64252;SDS011;50592;52.958;-7.470;2022-07-30T14:22:51;0.60;;;0.60;;
64252;SDS011;50592;52.958;-7.470;2022-07-30T14:25:18;0.70;;;0.70;;
64252;SDS011;50592;52.958;-7.470;2022-07-30T14:27:44;1.48;;;0.75;;
64252;SDS011;50592;52.958;-7.470;2022-07-30T14:30:10;2.10;;;0.70;;
64252;SDS011;50592;52.958;-7.470;2022-07-30T14:32:37;2.00;;;0.80;;
64252;SDS011;50592;52.958;-7.470;2022-07-30T14:35:07;1.80;;;0.98;;
64252;SDS011;50592;52.958;-7.470;2022-07-30T14:37:34;2.10;;;0.77;;
64252;SDS011;50592;52.958;-7.470;2022-07-30T14:40:01;1.42;;;0.68;;
64252;SDS011;50592;52.958;-7.470;2022-07-30T14:42:27;2.97;;;0.90;;
64252;SDS011;50592;52.958;-7.470;2022-07-30T14:44:53;0.60;;;0.60;;
64252;SDS011;50592;52.958;-7.470;2022-07-30T14:47:19;4.03;;;1.00;;
64252;SDS011;50592;52.958;-7.470;2022-07-30T14:49:45;1.10;;;0.80;;
64252;SDS011;50592;52.958;-7.470;2022-07-30T14:52:10;2.58;;;0.90;;
64252;SDS011;50592;52.958;-7.470;2022-07-30T14:54:37;0.90;;;0.70;;
64252;SDS011;50592;52.958;-7.470;2022-07-30T14:57:03;1.90;;;1.08;;
64252;SDS011;50592;52.958;-7.470;2022-07-30T14:59:28;2.67;;;0.98;;
64252;SDS011;50592;52.958;-7.470;2022-07-30T15:01:54;1.00;;;0.70;;
64252;SDS011;50592;52.958;-7.470;2022-07-30T15:04:21;1.58;;;0.80;;
64252;SDS011;50592;52.958;-7.470;2022-07-30T15:06:47;1.40;;;0.80;;
64252;SDS011;50592;52.958;-7.470;2022-07-30T15:09:13;2.72;;;0.82;;
64252;SDS011;50592;52.958;-7.470;2022-07-30T15:11:39;0.98;;;0.70;;
64252;SDS011;50592;52.958;-7.470;2022-07-30T15:14:05;1.42;;;1.00;;
64252;SDS011;50592;52.958;-7.470;2022-07-30T15:16:31;1.45;;;1.00;;
64252;SDS011;50592;52.958;-7.470;2022-07-30T15:18:57;2.53;;;0.90;;
64252;SDS011;50592;52.958;-7.470;2022-07-30T15:21:23;2.08;;;1.00;;
64252;SDS011;50592;52.958;-7.470;2022-07-30T15:23:49;2.85;;;1.00;;
64252;SDS011;50592;52.958;-7.470;2022-07-30T15:26:15;1.88;;;1.38;;
64252;SDS011;50592;52.958;-7.470;2022-07-30T15:28:41;1.52;;;1.00;;
64252;SDS011;50592;52.958;-7.470;2022-07-30T15:31:07;2.47;;;0.93;;
64252;SDS011;50592;52.958;-7.470;2022-07-30T15:33:33;1.30;;;1.20;;
64252;SDS011;50592;52.958;-7.470;2022-07-30T15:36:01;1.98;;;1.30;;
64252;SDS011;50592;52.958;-7.470;2022-07-30T15:38:27;1.42;;;1.33;;
64252;SDS011;50592;52.958;-7.470;2022-07-30T15:40:54;3.00;;;1.20;;
64252;SDS011;50592;52.958;-7.470;2022-07-30T15:43:20;2.33;;;1.42;;
64252;SDS011;50592;52.958;-7.470;2022-07-30T15:45:46;2.35;;;1.25;;